createdAt,value
2017-05-11T00:00:11.151Z,46.37
2017-05-11T00:01:11.762Z,46.19
2017-05-11T00:02:12.372Z,46.56
2017-05-11T00:03:12.991Z,46.37
2017-05-11T00:04:13.599Z,46.47
2017-05-11T00:05:14.215Z,46.37
2017-05-11T00:06:14.873Z,46.35
2017-05-11T00:07:15.493Z,46.64
2017-05-11T00:08:16.143Z,46.75
2017-05-11T00:09:16.757Z,46.92
2017-05-11T00:10:17.361Z,47.11
2017-05-11T00:11:17.972Z,46.92
2017-05-11T00:12:18.583Z,47.20
2017-05-11T00:13:19.195Z,47.20
2017-05-11T00:14:19.805Z,47.20
2017-05-11T00:15:20.418Z,47.11
2017-05-11T00:16:21.077Z,47.39
2017-05-11T00:17:21.690Z,47.58
2017-05-11T00:18:22.306Z,47.77
2017-05-11T00:19:22.918Z,47.77
2017-05-11T00:20:23.534Z,47.97
2017-05-11T00:21:24.197Z,47.68
2017-05-11T00:22:24.803Z,47.77
2017-05-11T00:23:25.449Z,48.35
2017-05-11T00:24:26.066Z,47.58
2017-05-11T00:25:26.674Z,48.44
2017-05-11T00:26:27.342Z,47.58
2017-05-11T00:27:27.948Z,47.97
2017-05-11T00:28:28.561Z,48.25
2017-05-11T00:29:29.203Z,47.77
2017-05-11T00:30:29.818Z,47.58
2017-05-11T00:31:30.483Z,48.35
2017-05-11T00:32:31.090Z,48.16
2017-05-11T00:33:31.700Z,48.35
2017-05-11T00:34:32.312Z,48.44
2017-05-11T00:35:32.925Z,48.16
2017-05-11T00:36:33.595Z,48.35
2017-05-11T00:37:34.202Z,48.35
2017-05-11T00:38:34.819Z,48.72
2017-05-11T00:39:35.427Z,48.91
2017-05-11T00:40:36.042Z,48.63
2017-05-11T00:41:36.701Z,48.91
2017-05-11T00:42:37.313Z,49.20
2017-05-11T00:43:37.923Z,49.10
2017-05-11T00:44:38.533Z,49.29
2017-05-11T00:45:39.145Z,49.10
2017-05-11T00:46:39.805Z,49.10
2017-05-11T00:47:40.417Z,49.10
2017-05-11T00:48:41.030Z,49.29
2017-05-11T00:49:41.646Z,48.91
2017-05-11T00:50:42.259Z,49.20
2017-05-11T00:51:42.873Z,49.10
2017-05-11T00:52:43.480Z,49.01
2017-05-11T00:53:44.093Z,49.10
2017-05-11T00:54:44.703Z,49.08
2017-05-11T00:55:45.313Z,49.08
2017-05-11T00:56:45.925Z,49.46
2017-05-11T00:57:46.534Z,49.37
2017-05-11T00:58:47.150Z,49.46
2017-05-11T00:59:47.760Z,49.65
2017-05-11T01:00:48.376Z,49.84
2017-05-11T01:01:48.982Z,49.55
2017-05-11T01:02:49.634Z,49.65
2017-05-11T01:03:50.241Z,49.65
2017-05-11T01:04:50.858Z,49.65
2017-05-11T01:05:51.472Z,49.55
2017-05-11T01:06:52.078Z,49.55
2017-05-11T01:07:52.689Z,49.93
2017-05-11T01:08:53.299Z,50.05
2017-05-11T01:09:53.909Z,49.96
2017-05-11T01:10:54.519Z,49.65
2017-05-11T01:11:55.185Z,49.74
2017-05-11T01:12:55.793Z,49.77
2017-05-11T01:13:56.403Z,50.12
2017-05-11T01:14:57.018Z,49.93
2017-05-11T01:15:57.627Z,50.12
2017-05-11T01:16:58.242Z,50.12
2017-05-11T01:17:58.853Z,50.22
2017-05-11T01:18:59.467Z,50.51
2017-05-11T01:20:00.076Z,50.51
2017-05-11T01:21:00.695Z,50.31
2017-05-11T01:22:01.307Z,50.22
2017-05-11T01:23:01.912Z,50.22
2017-05-11T01:24:02.530Z,50.41
2017-05-11T01:25:03.139Z,50.12
2017-05-11T01:26:03.753Z,50.12
2017-05-11T01:27:04.411Z,50.22
2017-05-11T01:28:05.022Z,50.22
2017-05-11T01:29:05.640Z,50.31
2017-05-11T01:30:06.248Z,50.41
2017-05-11T01:31:06.857Z,50.22
2017-05-11T01:32:07.468Z,50.31
2017-05-11T01:33:08.085Z,50.22
2017-05-11T01:34:08.692Z,50.22
2017-05-11T01:35:09.301Z,50.22
2017-05-11T01:36:09.911Z,50.12
2017-05-11T01:37:10.570Z,49.93
2017-05-11T01:38:11.185Z,50.31
2017-05-11T01:39:11.793Z,50.41
2017-05-11T01:40:12.404Z,50.41
2017-05-11T01:41:13.013Z,50.22
2017-05-11T01:42:13.625Z,50.79
2017-05-11T01:43:14.235Z,50.60
2017-05-11T01:44:14.846Z,51.07
2017-05-11T01:45:15.462Z,50.79
2017-05-11T01:46:16.074Z,50.89
2017-05-11T01:47:16.688Z,50.89
2017-05-11T01:48:17.297Z,51.17
2017-05-11T01:49:17.909Z,51.36
2017-05-11T01:50:18.519Z,51.83
2017-05-11T01:51:19.127Z,51.74
2017-05-11T01:52:19.793Z,51.83
2017-05-11T01:53:20.399Z,51.64
2017-05-11T01:54:21.016Z,52.12
2017-05-11T01:55:21.631Z,52.12
2017-05-11T01:56:22.239Z,52.12
2017-05-11T01:57:22.850Z,52.28
2017-05-11T01:58:23.465Z,52.37
2017-05-11T01:59:24.114Z,52.09
2017-05-11T02:00:24.724Z,52.28
2017-05-11T02:01:25.333Z,52.56
2017-05-11T02:02:25.949Z,52.47
2017-05-11T02:03:26.561Z,52.37
2017-05-11T02:04:27.169Z,52.31
2017-05-11T02:05:27.781Z,52.22
2017-05-11T02:06:28.391Z,52.47
2017-05-11T02:07:29.003Z,52.00
2017-05-11T02:08:29.613Z,52.12
2017-05-11T02:09:30.223Z,52.02
2017-05-11T02:10:30.833Z,52.02
2017-05-11T02:11:31.442Z,52.02
2017-05-11T02:12:32.053Z,52.22
2017-05-11T02:13:32.669Z,52.59
2017-05-11T02:14:33.316Z,52.22
2017-05-11T02:15:33.923Z,52.22
2017-05-11T02:16:34.532Z,52.76
2017-05-11T02:17:35.197Z,52.37
2017-05-11T02:18:35.805Z,52.37
2017-05-11T02:19:36.420Z,52.28
2017-05-11T02:20:37.026Z,52.76
2017-05-11T02:21:37.636Z,52.76
2017-05-11T02:22:38.304Z,52.56
2017-05-11T02:23:38.910Z,52.47
2017-05-11T02:24:39.525Z,53.14
2017-05-11T02:25:40.135Z,53.14
2017-05-11T02:26:40.753Z,53.23
2017-05-11T02:27:41.359Z,53.23
2017-05-11T02:28:41.974Z,53.14
2017-05-11T02:29:42.580Z,53.14
2017-05-11T02:30:43.190Z,53.04
2017-05-11T02:31:43.798Z,53.04
2017-05-11T02:32:44.408Z,52.95
2017-05-11T02:33:45.018Z,52.76
2017-05-11T02:34:45.628Z,52.78
2017-05-11T02:35:46.239Z,52.95
2017-05-11T02:36:46.881Z,52.78
2017-05-11T02:37:47.490Z,52.87
2017-05-11T02:38:48.100Z,53.07
2017-05-11T02:39:48.711Z,53.07
2017-05-11T02:40:49.327Z,53.04
2017-05-11T02:41:49.936Z,52.97
2017-05-11T02:42:50.578Z,52.95
2017-05-11T02:43:51.195Z,53.80
2017-05-11T02:44:51.808Z,53.61
2017-05-11T02:45:52.450Z,53.23
2017-05-11T02:46:53.059Z,53.33
2017-05-11T02:47:53.675Z,53.89
2017-05-11T02:48:54.318Z,53.42
2017-05-11T02:49:54.964Z,53.99
2017-05-11T02:50:55.611Z,53.70
2017-05-11T02:51:56.217Z,53.70
2017-05-11T02:52:56.828Z,53.70
2017-05-11T02:53:57.438Z,53.80
2017-05-11T02:54:58.050Z,53.70
2017-05-11T02:55:58.659Z,53.80
2017-05-11T02:56:59.275Z,53.61
2017-05-11T02:57:59.878Z,53.80
2017-05-11T02:59:00.489Z,53.89
2017-05-11T03:00:01.098Z,54.08
2017-05-11T03:01:01.708Z,53.99
2017-05-11T03:02:02.356Z,54.27
2017-05-11T03:03:03.013Z,54.46
2017-05-11T03:04:03.625Z,54.46
2017-05-11T03:05:04.234Z,54.27
2017-05-11T03:06:04.849Z,54.46
2017-05-11T03:07:05.457Z,54.08
2017-05-11T03:08:06.097Z,54.37
2017-05-11T03:09:06.707Z,54.85
2017-05-11T03:10:07.316Z,54.85
2017-05-11T03:11:07.933Z,54.85
2017-05-11T03:12:08.540Z,54.66
2017-05-11T03:13:09.199Z,54.85
2017-05-11T03:14:09.816Z,54.56
2017-05-11T03:15:10.466Z,54.27
2017-05-11T03:16:11.080Z,54.27
2017-05-11T03:17:11.693Z,54.37
2017-05-11T03:18:12.355Z,54.46
2017-05-11T03:19:12.963Z,54.56
2017-05-11T03:20:13.572Z,54.85
2017-05-11T03:21:14.182Z,55.04
2017-05-11T03:22:14.825Z,54.94
2017-05-11T03:23:15.486Z,54.66
2017-05-11T03:24:16.097Z,55.04
2017-05-11T03:25:16.706Z,54.85
2017-05-11T03:26:17.351Z,54.75
2017-05-11T03:27:17.961Z,54.75
2017-05-11T03:28:18.620Z,54.85
2017-05-11T03:29:19.231Z,54.75
2017-05-11T03:30:19.844Z,54.75
2017-05-11T03:31:20.451Z,54.75
2017-05-11T03:32:21.095Z,54.85
2017-05-11T03:33:21.753Z,54.85
2017-05-11T03:34:22.363Z,54.66
2017-05-11T03:35:22.973Z,55.04
2017-05-11T03:36:23.617Z,54.85
2017-05-11T03:37:24.229Z,55.41
2017-05-11T03:38:24.839Z,55.13
2017-05-11T03:39:25.457Z,55.22
2017-05-11T03:40:26.062Z,55.22
2017-05-11T03:41:26.672Z,55.13
2017-05-11T03:42:27.282Z,55.13
2017-05-11T03:43:27.893Z,55.13
2017-05-11T03:44:28.501Z,55.13
2017-05-11T03:45:29.111Z,55.04
2017-05-11T03:46:29.720Z,55.04
2017-05-11T03:47:30.330Z,55.41
2017-05-11T03:48:30.971Z,54.94
2017-05-11T03:49:31.581Z,55.04
2017-05-11T03:50:32.192Z,55.13
2017-05-11T03:51:32.801Z,55.22
2017-05-11T03:52:33.412Z,55.04
2017-05-11T03:53:34.024Z,55.13
2017-05-11T03:54:34.633Z,55.22
2017-05-11T03:55:35.244Z,55.60
2017-05-11T03:56:35.855Z,55.32
2017-05-11T03:57:36.469Z,55.70
2017-05-11T03:58:37.127Z,55.70
2017-05-11T03:59:37.735Z,55.98
2017-05-11T04:00:38.344Z,55.79
2017-05-11T04:01:38.960Z,55.89
2017-05-11T04:02:39.568Z,56.17
2017-05-11T04:03:40.180Z,55.98
2017-05-11T04:04:40.795Z,56.08
2017-05-11T04:05:41.403Z,55.89
2017-05-11T04:06:42.013Z,56.55
2017-05-11T04:07:42.627Z,56.36
2017-05-11T04:08:43.263Z,56.27
2017-05-11T04:09:43.873Z,56.27
2017-05-11T04:10:44.520Z,56.55
2017-05-11T04:11:45.127Z,56.55
2017-05-11T04:12:45.736Z,56.27
2017-05-11T04:13:46.400Z,56.65
2017-05-11T04:14:47.009Z,56.55
2017-05-11T04:15:47.653Z,56.27
2017-05-11T04:16:48.264Z,56.55
2017-05-11T04:17:48.882Z,56.55
2017-05-11T04:18:49.490Z,56.27
2017-05-11T04:19:50.102Z,56.27
2017-05-11T04:20:50.711Z,56.46
2017-05-11T04:21:51.323Z,57.03
2017-05-11T04:22:51.934Z,56.55
2017-05-11T04:23:52.545Z,56.84
2017-05-11T04:24:53.162Z,56.84
2017-05-11T04:25:53.770Z,56.74
2017-05-11T04:26:54.382Z,56.74
2017-05-11T04:27:54.998Z,57.12
2017-05-11T04:28:55.605Z,57.03
2017-05-11T04:29:56.217Z,57.21
2017-05-11T04:30:56.827Z,57.21
2017-05-11T04:31:57.439Z,57.03
2017-05-11T04:32:58.049Z,57.03
2017-05-11T04:33:58.715Z,57.03
2017-05-11T04:34:59.324Z,57.21
2017-05-11T04:35:59.936Z,57.12
2017-05-11T04:37:00.553Z,57.12
2017-05-11T04:38:01.160Z,57.12
2017-05-11T04:39:01.772Z,57.12
2017-05-11T04:40:02.386Z,56.65
2017-05-11T04:41:02.996Z,56.74
2017-05-11T04:42:03.613Z,57.31
2017-05-11T04:43:04.221Z,57.40
2017-05-11T04:44:04.887Z,56.74
2017-05-11T04:45:05.494Z,57.21
2017-05-11T04:46:06.110Z,57.31
2017-05-11T04:47:06.719Z,56.65
2017-05-11T04:48:07.330Z,57.03
2017-05-11T04:49:07.944Z,57.21
2017-05-11T04:50:08.554Z,57.21
2017-05-11T04:51:09.171Z,57.12
2017-05-11T04:52:09.779Z,57.21
2017-05-11T04:53:10.393Z,57.12
2017-05-11T04:54:11.006Z,57.12
2017-05-11T04:55:11.656Z,57.12
2017-05-11T04:56:12.265Z,56.74
2017-05-11T04:57:12.878Z,57.03
2017-05-11T04:58:13.488Z,56.74
2017-05-11T04:59:14.100Z,56.84
2017-05-11T05:00:14.716Z,57.03
2017-05-11T05:01:15.328Z,57.12
2017-05-11T05:02:15.936Z,56.93
2017-05-11T05:03:16.544Z,56.93
2017-05-11T05:04:17.206Z,57.79
2017-05-11T05:05:17.818Z,57.69
2017-05-11T05:06:18.426Z,56.84
2017-05-11T05:07:19.042Z,57.12
2017-05-11T05:08:19.655Z,57.21
2017-05-11T05:09:20.312Z,57.69
2017-05-11T05:10:20.922Z,57.72
2017-05-11T05:11:21.537Z,57.03
2017-05-11T05:12:22.147Z,57.12
2017-05-11T05:13:22.763Z,56.77
2017-05-11T05:14:23.428Z,57.34
2017-05-11T05:15:24.033Z,56.74
2017-05-11T05:16:24.644Z,56.96
2017-05-11T05:17:25.263Z,56.96
2017-05-11T05:18:25.870Z,57.24
2017-05-11T05:19:26.483Z,57.06
2017-05-11T05:20:27.098Z,56.68
2017-05-11T05:21:27.704Z,56.96
2017-05-11T05:22:28.322Z,56.96
2017-05-11T05:23:28.936Z,57.06
2017-05-11T05:24:29.543Z,57.06
2017-05-11T05:25:30.161Z,57.69
2017-05-11T05:26:30.769Z,57.34
2017-05-11T05:27:31.388Z,57.34
2017-05-11T05:28:31.994Z,57.43
2017-05-11T05:29:32.686Z,57.40
2017-05-11T05:30:33.300Z,57.34
2017-05-11T05:31:33.910Z,57.24
2017-05-11T05:32:34.519Z,57.24
2017-05-11T05:33:35.134Z,57.53
2017-05-11T05:34:35.798Z,57.43
2017-05-11T05:35:36.416Z,57.43
2017-05-11T05:36:37.023Z,57.34
2017-05-11T05:37:37.669Z,57.53
2017-05-11T05:38:38.319Z,57.24
2017-05-11T05:39:38.930Z,57.24
2017-05-11T05:40:39.544Z,57.24
2017-05-11T05:41:40.157Z,57.62
2017-05-11T05:42:40.771Z,57.43
2017-05-11T05:43:41.387Z,57.62
2017-05-11T05:44:42.004Z,57.62
2017-05-11T05:45:42.615Z,57.24
2017-05-11T05:46:43.225Z,57.34
2017-05-11T05:47:43.844Z,57.34
2017-05-11T05:48:44.458Z,57.34
2017-05-11T05:49:45.071Z,57.24
2017-05-11T05:50:45.682Z,57.43
2017-05-11T05:51:46.297Z,57.62
2017-05-11T05:52:46.910Z,57.34
2017-05-11T05:53:47.555Z,57.56
2017-05-11T05:54:48.251Z,57.18
2017-05-11T05:55:48.863Z,57.46
2017-05-11T05:56:49.480Z,57.56
2017-05-11T05:57:50.090Z,56.99
2017-05-11T05:58:50.704Z,57.18
2017-05-11T05:59:51.318Z,57.18
2017-05-11T06:00:51.938Z,56.99
2017-05-11T06:01:52.548Z,57.28
2017-05-11T06:02:53.163Z,57.18
2017-05-11T06:03:53.777Z,56.80
2017-05-11T06:04:54.442Z,56.80
2017-05-11T06:05:55.055Z,56.70
2017-05-11T06:06:55.669Z,56.89
2017-05-11T06:07:56.283Z,57.02
2017-05-11T06:08:56.897Z,57.11
2017-05-11T06:09:57.562Z,57.11
2017-05-11T06:10:58.176Z,56.26
2017-05-11T06:11:58.790Z,56.54
2017-05-11T06:12:59.404Z,56.35
2017-05-11T06:14:00.019Z,56.26
2017-05-11T06:15:00.634Z,56.54
2017-05-11T06:16:01.282Z,56.45
2017-05-11T06:17:01.895Z,57.11
2017-05-11T06:18:02.509Z,56.80
2017-05-11T06:19:03.121Z,56.61
2017-05-11T06:20:03.784Z,56.89
2017-05-11T06:21:04.399Z,56.80
2017-05-11T06:22:05.014Z,56.61
2017-05-11T06:23:05.627Z,57.09
2017-05-11T06:24:06.242Z,56.73
2017-05-11T06:25:06.855Z,57.21
2017-05-11T06:26:07.474Z,57.21
2017-05-11T06:27:08.086Z,57.40
2017-05-11T06:28:08.740Z,56.83
2017-05-11T06:29:09.354Z,56.63
2017-05-11T06:30:09.964Z,56.92
2017-05-11T06:31:10.577Z,56.73
2017-05-11T06:32:11.222Z,57.11
2017-05-11T06:33:11.843Z,57.18
2017-05-11T06:34:12.456Z,56.80
2017-05-11T06:35:13.075Z,57.09
2017-05-11T06:36:13.685Z,57.46
2017-05-11T06:37:14.300Z,57.18
2017-05-11T06:38:14.945Z,57.65
2017-05-11T06:39:15.560Z,57.46
2017-05-11T06:40:16.174Z,57.37
2017-05-11T06:41:16.787Z,57.37
2017-05-11T06:42:17.402Z,57.46
2017-05-11T06:43:18.016Z,57.28
2017-05-11T06:44:18.629Z,57.59
2017-05-11T06:45:19.293Z,57.50
2017-05-11T06:46:19.906Z,57.46
2017-05-11T06:47:20.524Z,57.21
2017-05-11T06:48:21.138Z,57.56
2017-05-11T06:49:21.753Z,57.46
2017-05-11T06:50:22.421Z,57.37
2017-05-11T06:51:23.037Z,57.78
2017-05-11T06:52:23.650Z,57.59
2017-05-11T06:53:24.271Z,58.06
2017-05-11T06:54:24.888Z,57.59
2017-05-11T06:55:25.548Z,57.30
2017-05-11T06:56:26.165Z,57.50
2017-05-11T06:57:26.779Z,57.50
2017-05-11T06:58:27.392Z,57.40
2017-05-11T06:59:28.010Z,57.40
2017-05-11T07:00:28.671Z,57.68
2017-05-11T07:01:29.286Z,57.59
2017-05-11T07:02:29.907Z,57.30
2017-05-11T07:03:30.518Z,57.11
2017-05-11T07:04:31.138Z,57.02
2017-05-11T07:05:31.828Z,57.02
2017-05-11T07:06:32.442Z,57.11
2017-05-11T07:07:33.056Z,57.30
2017-05-11T07:08:33.683Z,57.30
2017-05-11T07:09:34.297Z,57.30
2017-05-11T07:10:34.907Z,57.62
2017-05-11T07:11:35.520Z,57.24
2017-05-11T07:12:36.137Z,56.73
2017-05-11T07:13:36.757Z,56.83
2017-05-11T07:14:37.368Z,57.30
2017-05-11T07:15:38.013Z,57.11
2017-05-11T07:16:38.633Z,57.71
2017-05-11T07:17:39.242Z,57.81
2017-05-11T07:18:39.855Z,57.43
2017-05-11T07:19:40.467Z,57.24
2017-05-11T07:20:41.163Z,56.85
2017-05-11T07:21:41.780Z,57.24
2017-05-11T07:22:42.394Z,57.14
2017-05-11T07:23:43.009Z,57.43
2017-05-11T07:24:43.628Z,57.04
2017-05-11T07:25:44.292Z,57.24
2017-05-11T07:26:44.903Z,57.24
2017-05-11T07:27:45.515Z,57.90
2017-05-11T07:28:46.135Z,57.33
2017-05-11T07:29:46.752Z,57.24
2017-05-11T07:30:47.412Z,57.24
2017-05-11T07:31:48.032Z,57.14
2017-05-11T07:32:48.646Z,56.67
2017-05-11T07:33:49.264Z,56.67
2017-05-11T07:34:49.871Z,56.57
2017-05-11T07:35:50.536Z,56.38
2017-05-11T07:36:51.184Z,56.38
2017-05-11T07:37:51.799Z,56.48
2017-05-11T07:38:52.412Z,56.85
2017-05-11T07:39:53.029Z,57.24
2017-05-11T07:40:53.674Z,57.14
2017-05-11T07:41:54.289Z,56.95
2017-05-11T07:42:54.902Z,57.45
2017-05-11T07:43:55.515Z,57.17
2017-05-11T07:44:56.138Z,56.70
2017-05-11T07:45:56.799Z,56.41
2017-05-11T07:46:57.418Z,56.31
2017-05-11T07:47:58.029Z,56.12
2017-05-11T07:48:58.648Z,56.12
2017-05-11T07:49:59.267Z,56.22
2017-05-11T07:50:59.927Z,56.41
2017-05-11T07:52:00.540Z,56.41
2017-05-11T07:53:01.156Z,56.22
2017-05-11T07:54:01.806Z,56.79
2017-05-11T07:55:02.417Z,56.88
2017-05-11T07:56:03.038Z,56.41
2017-05-11T07:57:03.651Z,56.70
2017-05-11T07:58:04.269Z,56.79
2017-05-11T07:59:04.880Z,56.31
2017-05-11T08:00:05.533Z,56.60
2017-05-11T08:01:06.181Z,56.53
2017-05-11T08:02:06.800Z,56.34
2017-05-11T08:03:07.407Z,56.24
2017-05-11T08:04:08.027Z,56.05
2017-05-11T08:05:08.640Z,56.15
2017-05-11T08:06:09.261Z,55.87
2017-05-11T08:07:09.873Z,55.20
2017-05-11T08:08:10.493Z,55.36
2017-05-11T08:09:11.104Z,55.46
2017-05-11T08:10:11.721Z,55.83
2017-05-11T08:11:12.340Z,55.36
2017-05-11T08:12:12.951Z,55.74
2017-05-11T08:13:13.566Z,55.65
2017-05-11T08:14:14.186Z,55.46
2017-05-11T08:15:14.797Z,55.39
2017-05-11T08:16:15.413Z,56.05
2017-05-11T08:17:16.033Z,56.05
2017-05-11T08:18:16.645Z,56.53
2017-05-11T08:19:17.261Z,56.44
2017-05-11T08:20:17.876Z,56.37
2017-05-11T08:21:18.493Z,55.42
2017-05-11T08:22:19.109Z,54.56
2017-05-11T08:23:19.729Z,53.89
2017-05-11T08:24:20.348Z,54.18
2017-05-11T08:25:20.963Z,53.80
2017-05-11T08:26:21.627Z,54.37
2017-05-11T08:27:22.276Z,53.89
2017-05-11T08:28:22.891Z,53.70
2017-05-11T08:29:23.507Z,53.70
2017-05-11T08:30:24.123Z,53.61
2017-05-11T08:31:24.740Z,53.23
2017-05-11T08:32:25.355Z,53.70
2017-05-11T08:33:25.977Z,53.70
2017-05-11T08:34:26.630Z,53.04
2017-05-11T08:35:27.245Z,53.13
2017-05-11T08:36:27.859Z,52.84
2017-05-11T08:37:28.475Z,53.32
2017-05-11T08:38:29.098Z,53.80
2017-05-11T08:39:29.710Z,52.84
2017-05-11T08:40:30.326Z,53.13
2017-05-11T08:41:30.948Z,52.94
2017-05-11T08:42:31.560Z,52.56
2017-05-11T08:43:32.178Z,52.75
2017-05-11T08:44:32.794Z,53.23
2017-05-11T08:45:33.411Z,53.04
2017-05-11T08:46:34.056Z,53.23
2017-05-11T08:47:34.675Z,52.94
2017-05-11T08:48:35.296Z,52.84
2017-05-11T08:49:35.910Z,52.66
2017-05-11T08:50:36.534Z,52.66
2017-05-11T08:51:37.149Z,53.13
2017-05-11T08:52:37.762Z,53.23
2017-05-11T08:53:38.377Z,53.13
2017-05-11T08:54:38.993Z,53.42
2017-05-11T08:55:39.611Z,52.84
2017-05-11T08:56:40.278Z,52.66
2017-05-11T08:57:40.891Z,52.84
2017-05-11T08:58:41.505Z,52.37
2017-05-11T08:59:42.126Z,52.56
2017-05-11T09:00:42.745Z,52.37
2017-05-11T09:01:43.364Z,52.28
2017-05-11T09:02:43.978Z,52.47
2017-05-11T09:03:44.594Z,52.75
2017-05-11T09:04:45.215Z,52.75
2017-05-11T09:05:45.828Z,52.94
2017-05-11T09:06:46.443Z,52.66
2017-05-11T09:07:47.059Z,52.66
2017-05-11T09:08:47.682Z,52.75
2017-05-11T09:09:48.297Z,52.75
2017-05-11T09:10:48.948Z,53.23
2017-05-11T09:11:49.619Z,52.94
2017-05-11T09:12:50.237Z,52.84
2017-05-11T09:13:50.853Z,53.13
2017-05-11T09:14:51.466Z,53.80
2017-05-11T09:15:52.089Z,53.61
2017-05-11T09:16:52.704Z,53.89
2017-05-11T09:17:53.318Z,53.13
2017-05-11T09:18:53.933Z,52.84
2017-05-11T09:19:54.555Z,52.94
2017-05-11T09:20:55.177Z,52.53
2017-05-11T09:21:55.785Z,52.92
2017-05-11T09:22:56.402Z,53.11
2017-05-11T09:23:57.016Z,53.49
2017-05-11T09:24:57.636Z,53.96
2017-05-11T09:25:58.252Z,53.67
2017-05-11T09:26:58.919Z,53.70
2017-05-11T09:27:59.544Z,53.61
2017-05-11T09:29:00.153Z,53.61
2017-05-11T09:30:00.768Z,53.13
2017-05-11T09:31:01.387Z,53.23
2017-05-11T09:32:02.087Z,53.42
2017-05-11T09:33:02.707Z,53.04
2017-05-11T09:34:03.318Z,53.13
2017-05-11T09:35:03.941Z,53.04
2017-05-11T09:36:04.590Z,52.47
2017-05-11T09:37:05.215Z,52.47
2017-05-11T09:38:05.827Z,52.75
2017-05-11T09:39:06.450Z,52.47
2017-05-11T09:40:07.062Z,52.37
2017-05-11T09:41:07.677Z,52.84
2017-05-11T09:42:08.297Z,52.75
2017-05-11T09:43:08.912Z,53.32
2017-05-11T09:44:09.529Z,53.23
2017-05-11T09:45:10.145Z,52.75
2017-05-11T09:46:10.764Z,53.23
2017-05-11T09:47:11.382Z,52.84
2017-05-11T09:48:12.002Z,52.75
2017-05-11T09:49:12.621Z,52.75
2017-05-11T09:50:13.235Z,52.84
2017-05-11T09:51:13.847Z,53.13
2017-05-11T09:52:14.464Z,53.13
2017-05-11T09:53:15.087Z,52.75
2017-05-11T09:54:15.701Z,52.37
2017-05-11T09:55:16.317Z,52.37
2017-05-11T09:56:16.938Z,52.37
2017-05-11T09:57:17.609Z,52.56
2017-05-11T09:58:18.223Z,52.84
2017-05-11T09:59:18.840Z,52.66
2017-05-11T10:00:19.456Z,52.28
2017-05-11T10:01:20.074Z,52.34
2017-05-11T10:02:20.745Z,52.82
2017-05-11T10:03:21.359Z,52.94
2017-05-11T10:04:21.976Z,52.28
2017-05-11T10:05:22.593Z,52.66
2017-05-11T10:06:23.216Z,52.44
2017-05-11T10:07:23.829Z,52.44
2017-05-11T10:08:24.444Z,52.25
2017-05-11T10:09:25.065Z,52.44
2017-05-11T10:10:25.678Z,52.53
2017-05-11T10:11:26.301Z,52.63
2017-05-11T10:12:26.920Z,52.34
2017-05-11T10:13:27.531Z,52.53
2017-05-11T10:14:28.144Z,52.53
2017-05-11T10:15:28.763Z,52.44
2017-05-11T10:16:29.380Z,52.34
2017-05-11T10:17:30.048Z,52.44
2017-05-11T10:18:30.659Z,52.72
2017-05-11T10:19:31.278Z,52.44
2017-05-11T10:20:31.890Z,52.34
2017-05-11T10:21:32.508Z,52.34
2017-05-11T10:22:33.178Z,52.72
2017-05-11T10:23:33.790Z,53.11
2017-05-11T10:24:34.404Z,52.47
2017-05-11T10:25:35.023Z,52.94
2017-05-11T10:26:35.645Z,52.84
2017-05-11T10:27:36.559Z,52.37
2017-05-11T10:28:37.180Z,52.56
2017-05-11T10:29:37.791Z,52.66
2017-05-11T10:30:38.410Z,52.40
2017-05-11T10:31:39.061Z,52.30
2017-05-11T10:32:39.683Z,52.30
2017-05-11T10:33:40.300Z,52.40
2017-05-11T10:34:40.915Z,51.92
2017-05-11T10:35:41.531Z,51.45
2017-05-11T10:36:42.154Z,51.82
2017-05-11T10:37:42.767Z,51.45
2017-05-11T10:38:43.384Z,51.45
2017-05-11T10:39:43.999Z,51.45
2017-05-11T10:40:44.618Z,52.11
2017-05-11T10:41:45.237Z,51.64
2017-05-11T10:42:45.852Z,51.73
2017-05-11T10:43:46.470Z,51.45
2017-05-11T10:44:47.085Z,50.68
2017-05-11T10:45:47.703Z,50.87
2017-05-11T10:46:48.319Z,51.06
2017-05-11T10:47:48.938Z,51.16
2017-05-11T10:48:49.553Z,51.16
2017-05-11T10:49:50.175Z,51.16
2017-05-11T10:50:50.793Z,50.87
2017-05-11T10:51:51.414Z,50.87
2017-05-11T10:52:52.031Z,51.16
2017-05-11T10:53:52.650Z,50.87
2017-05-11T10:54:53.262Z,50.87
2017-05-11T10:55:53.879Z,51.25
2017-05-11T10:56:54.502Z,51.35
2017-05-11T10:57:55.118Z,50.68
2017-05-11T10:58:55.733Z,50.40
2017-05-11T10:59:56.350Z,50.68
2017-05-11T11:00:56.966Z,50.59
2017-05-11T11:01:57.590Z,50.30
2017-05-11T11:02:58.505Z,50.40
2017-05-11T11:03:59.130Z,50.40
2017-05-11T11:04:59.742Z,50.40
2017-05-11T11:06:00.359Z,50.49
2017-05-11T11:07:00.976Z,51.06
2017-05-11T11:08:01.649Z,50.78
2017-05-11T11:09:02.297Z,50.30
2017-05-11T11:10:02.919Z,50.49
2017-05-11T11:11:03.531Z,50.49
2017-05-11T11:12:04.149Z,50.49
2017-05-11T11:13:04.850Z,50.30
2017-05-11T11:14:05.507Z,50.40
2017-05-11T11:15:06.121Z,50.40
2017-05-11T11:16:06.738Z,50.49
2017-05-11T11:17:07.355Z,50.59
2017-05-11T11:18:08.310Z,50.27
2017-05-11T11:19:08.925Z,50.09
2017-05-11T11:20:09.544Z,50.66
2017-05-11T11:21:10.163Z,50.37
2017-05-11T11:22:10.813Z,50.27
2017-05-11T11:23:11.628Z,50.27
2017-05-11T11:24:12.245Z,50.56
2017-05-11T11:25:12.861Z,50.66
2017-05-11T11:26:13.510Z,50.94
2017-05-11T11:27:14.124Z,51.04
2017-05-11T11:28:14.793Z,51.14
2017-05-11T11:29:15.410Z,51.14
2017-05-11T11:30:16.028Z,51.14
2017-05-11T11:31:16.642Z,50.85
2017-05-11T11:32:17.259Z,51.04
2017-05-11T11:33:17.877Z,51.14
2017-05-11T11:34:18.493Z,51.32
2017-05-11T11:35:19.144Z,51.42
2017-05-11T11:36:19.760Z,52.09
2017-05-11T11:37:20.382Z,51.80
2017-05-11T11:38:20.995Z,51.82
2017-05-11T11:39:21.613Z,52.11
2017-05-11T11:40:22.232Z,51.35
2017-05-11T11:41:22.848Z,51.45
2017-05-11T11:42:23.464Z,51.45
2017-05-11T11:43:24.080Z,50.97
2017-05-11T11:44:24.701Z,51.35
2017-05-11T11:45:25.316Z,51.25
2017-05-11T11:46:25.931Z,50.87
2017-05-11T11:47:26.548Z,50.59
2017-05-11T11:48:27.171Z,50.49
2017-05-11T11:49:27.784Z,50.99
2017-05-11T11:50:28.402Z,50.71
2017-05-11T11:51:29.023Z,50.71
2017-05-11T11:52:29.637Z,50.80
2017-05-11T11:53:30.553Z,50.71
2017-05-11T11:54:31.169Z,50.52
2017-05-11T11:55:31.788Z,50.13
2017-05-11T11:56:32.405Z,50.32
2017-05-11T11:57:33.026Z,50.32
2017-05-11T11:58:33.641Z,49.95
2017-05-11T11:59:34.258Z,49.56
2017-05-11T12:00:34.875Z,50.13
2017-05-11T12:01:35.493Z,49.49
2017-05-11T12:02:36.108Z,50.35
2017-05-11T12:03:36.777Z,50.16
2017-05-11T12:04:37.426Z,50.26
2017-05-11T12:05:38.049Z,50.07
2017-05-11T12:06:38.664Z,49.21
2017-05-11T12:07:39.282Z,48.92
2017-05-11T12:08:39.949Z,48.83
2017-05-11T12:09:40.565Z,49.11
2017-05-11T12:10:41.185Z,49.11
2017-05-11T12:11:41.799Z,49.11
2017-05-11T12:12:42.421Z,48.92
2017-05-11T12:13:43.287Z,48.63
2017-05-11T12:14:43.909Z,48.73
2017-05-11T12:15:44.521Z,48.35
2017-05-11T12:16:45.141Z,48.52
2017-05-11T12:17:45.765Z,48.71
2017-05-11T12:18:46.684Z,48.42
2017-05-11T12:19:47.298Z,48.61
2017-05-11T12:20:47.947Z,48.61
2017-05-11T12:21:48.564Z,48.42
2017-05-11T12:22:49.180Z,48.23
2017-05-11T12:23:49.800Z,48.42
2017-05-11T12:24:50.451Z,47.94
2017-05-11T12:25:51.068Z,47.82
2017-05-11T12:26:51.686Z,48.49
2017-05-11T12:27:52.301Z,48.21
2017-05-11T12:28:53.009Z,48.97
2017-05-11T12:29:53.588Z,49.06
2017-05-11T12:30:54.203Z,49.16
2017-05-11T12:31:54.820Z,49.26
2017-05-11T12:32:55.436Z,48.97
2017-05-11T12:33:56.059Z,49.06
2017-05-11T12:34:56.674Z,49.18
2017-05-11T12:35:57.290Z,48.52
2017-05-11T12:36:57.914Z,47.63
2017-05-11T12:37:58.563Z,47.63
2017-05-11T12:38:59.180Z,48.39
2017-05-11T12:39:59.840Z,48.49
2017-05-11T12:41:00.418Z,48.58
2017-05-11T12:42:01.033Z,49.18
2017-05-11T12:43:01.651Z,48.90
2017-05-11T12:44:02.272Z,48.90
2017-05-11T12:45:02.892Z,48.42
2017-05-11T12:46:03.507Z,48.23
2017-05-11T12:47:04.129Z,48.73
2017-05-11T12:48:04.749Z,48.83
2017-05-11T12:49:05.369Z,48.54
2017-05-11T12:50:05.981Z,48.37
2017-05-11T12:51:06.599Z,48.47
2017-05-11T12:52:07.216Z,47.71
2017-05-11T12:53:07.839Z,47.52
2017-05-11T12:54:08.505Z,46.75
2017-05-11T12:55:09.155Z,46.75
2017-05-11T12:56:09.772Z,46.47
2017-05-11T12:57:10.390Z,46.08
2017-05-11T12:58:11.007Z,45.89
2017-05-11T12:59:11.744Z,46.66
2017-05-11T13:00:12.322Z,46.56